Time;durP1;ratioP1;P1;durP2;ratioP2;P2;SDS_P1;SDS_P2;PMS_P1;PMS_P2;Temp;Humidity;BMP_temperature;BMP_pressure;BME280_temperature;BME280_humidity;BME280_pressure;Samples;Min_cycle;Max_cycle;Signal;HPM_P1;HPM_P2
2022/10/11 00:01:06;;;;;;;9.73;2.07;;;;;;;12.13;100.00;99660.25;5113913;28;20240;-79
2022/10/11 00:03:34;;;;;;;9.23;2.43;;;;;;;11.83;100.00;99652.38;5081899;28;20218;-79
2022/10/11 00:06:04;;;;;;;8.70;2.50;;;;;;;11.78;100.00;99654.44;5115390;28;20255;-80
2022/10/11 00:08:35;;;;;;;9.63;2.30;;;;;;;11.74;100.00;99669.66;5077978;28;20282;-79
2022/10/11 00:11:08;;;;;;;4.87;1.80;;;;;;;11.85;100.00;99667.25;5114906;28;20230;-80
2022/10/11 00:13:36;;;;;;;5.67;2.30;;;;;;;11.88;100.00;99666.22;5117408;28;20187;-80
2022/10/11 00:16:09;;;;;;;10.83;2.40;;;;;;;11.81;100.00;99672.84;5117126;28;20187;-79
2022/10/11 00:18:38;;;;;;;9.77;2.10;;;;;;;11.58;100.00;99675.06;5117027;28;20195;-79
2022/10/11 00:21:09;;;;;;;8.77;2.50;;;;;;;11.53;100.00;99676.28;5114261;28;20665;-79
2022/10/11 00:23:38;;;;;;;11.67;2.60;;;;;;;11.47;100.00;99683.63;5121426;28;20223;-79
2022/10/11 00:26:11;;;;;;;9.43;2.20;;;;;;;11.35;100.00;99686.16;5113414;28;20187;-79
2022/10/11 00:28:40;;;;;;;8.20;2.27;;;;;;;11.43;100.00;99678.63;5116897;28;20226;-80
2022/10/11 00:31:09;;;;;;;7.13;2.20;;;;;;;11.32;100.00;99692.50;5116993;28;20248;-79
2022/10/11 00:33:38;;;;;;;10.77;2.50;;;;;;;11.18;100.00;99695.94;5113134;28;20217;-79
2022/10/11 00:36:07;;;;;;;10.20;2.33;;;;;;;11.30;100.00;99704.16;5119233;27;20203;-79
2022/10/11 00:38:36;;;;;;;6.23;2.13;;;;;;;11.32;100.00;99707.56;5103858;28;20456;-79
2022/10/11 00:41:05;;;;;;;8.27;2.50;;;;;;;11.21;100.00;99716.16;5115511;28;20252;-80
2022/10/11 00:43:35;;;;;;;8.43;2.53;;;;;;;11.13;100.00;99713.09;5108229;28;20245;-80
2022/10/11 00:46:24;;;;;;;9.33;2.57;;;;;;;11.24;100.00;99715.13;5116725;28;20191;-79
2022/10/11 00:48:57;;;;;;;9.13;2.70;;;;;;;11.12;100.00;99724.63;5116391;28;20220;-80
2022/10/11 00:51:34;;;;;;;11.60;2.40;;;;;;;11.06;100.00;99723.16;5106636;28;20263;-80
2022/10/11 00:54:04;;;;;;;11.77;2.40;;;;;;;11.11;100.00;99730.88;5115530;28;20310;-80
2022/10/11 00:56:36;;;;;;;9.80;2.27;;;;;;;11.13;100.00;99726.34;5112258;28;20255;-80
2022/10/11 00:59:12;;;;;;;12.47;2.70;;;;;;;10.98;100.00;99719.25;5109700;28;20191;-79
2022/10/11 01:01:41;;;;;;;10.77;2.20;;;;;;;11.07;100.00;99730.19;5112144;28;20254;-80
2022/10/11 01:04:09;;;;;;;8.57;2.27;;;;;;;11.09;100.00;99728.28;5114197;28;20215;-80
2022/10/11 01:06:38;;;;;;;8.80;2.50;;;;;;;10.99;100.00;99731.56;5107851;28;20638;-80
2022/10/11 01:09:12;;;;;;;7.47;2.23;;;;;;;11.01;100.00;99733.19;5114460;28;20210;-79
2022/10/11 01:11:44;;;;;;;12.27;2.50;;;;;;;10.97;100.00;99731.66;5072433;28;20196;-80
2022/10/11 01:14:48;;;;;;;7.47;2.60;;;;;;;10.93;100.00;99735.44;5066583;28;20196;-80
2022/10/11 01:17:28;;;;;;;9.77;2.47;;;;;;;10.58;100.00;99738.22;5049393;28;20247;-80
2022/10/11 01:20:17;;;;;;;8.30;2.63;;;;;;;10.59;100.00;99747.03;5071488;28;20246;-80
2022/10/11 01:23:14;;;;;;;9.27;2.50;;;;;;;10.68;100.00;99750.97;5065598;28;20184;-80
2022/10/11 01:25:58;;;;;;;16.03;2.67;;;;;;;10.68;100.00;99749.16;5067840;28;20249;-80
2022/10/11 01:28:41;;;;;;;9.03;2.03;;;;;;;10.69;100.00;99750.88;5070450;28;20251;-80
2022/10/11 01:31:20;;;;;;;7.70;2.13;;;;;;;10.77;100.00;99745.16;5066546;28;20212;-79
2022/10/11 01:33:55;;;;;;;10.43;2.90;;;;;;;10.66;100.00;99755.50;5068517;28;20234;-80
2022/10/11 01:36:29;;;;;;;12.17;2.67;;;;;;;10.68;100.00;99761.56;5073103;28;20192;-80
2022/10/11 01:39:03;;;;;;;8.80;2.10;;;;;;;10.59;100.00;99755.81;5065034;28;20227;-80
2022/10/11 01:41:37;;;;;;;11.17;2.47;;;;;;;10.57;100.00;99760.34;5070663;28;20193;-80
2022/10/11 01:44:08;;;;;;;10.77;2.20;;;;;;;10.42;100.00;99758.56;5029162;28;20216;-79
2022/10/11 01:46:38;;;;;;;13.93;2.40;;;;;;;10.40;100.00;99764.84;5028089;28;20264;-80
2022/10/11 01:49:07;;;;;;;11.57;2.20;;;;;;;10.23;100.00;99760.44;5058784;28;20228;-80
2022/10/11 01:51:40;;;;;;;17.23;2.87;;;;;;;10.28;100.00;99769.88;5090447;28;20188;-79
2022/10/11 01:54:34;;;;;;;16.30;2.80;;;;;;;10.36;100.00;99777.41;5089984;28;20203;-79
2022/10/11 01:57:47;;;;;;;13.53;2.80;;;;;;;10.37;100.00;99775.59;5087715;28;20195;-80
2022/10/11 02:00:19;;;;;;;10.00;2.57;;;;;;;10.49;100.00;99770.50;5088570;28;20332;-79
2022/10/11 02:03:00;;;;;;;8.10;2.63;;;;;;;10.50;100.00;99766.91;5089372;28;20192;-80
2022/10/11 02:05:36;;;;;;;9.57;2.13;;;;;;;10.48;100.00;99763.50;5088566;28;20193;-80
2022/10/11 02:08:09;;;;;;;9.03;2.33;;;;;;;10.50;100.00;99774.00;5087815;28;20661;-79
2022/10/11 02:10:42;;;;;;;8.10;2.40;;;;;;;10.39;100.00;99779.03;5113067;28;20243;-79
2022/10/11 02:13:15;;;;;;;12.80;2.43;;;;;;;10.24;100.00;99773.63;5110071;28;20187;-79
2022/10/11 02:15:47;;;;;;;12.20;2.43;;;;;;;10.32;100.00;99776.69;5114941;28;20199;-79
2022/10/11 02:18:22;;;;;;;13.53;2.50;;;;;;;10.36;100.00;99780.06;5114625;28;20199;-79
2022/10/11 02:20:51;;;;;;;12.73;2.43;;;;;;;10.47;100.00;99777.69;5114398;28;20195;-79
2022/10/11 02:23:27;;;;;;;9.13;2.13;;;;;;;10.49;100.00;99789.03;5105339;28;20194;-79
2022/10/11 02:25:57;;;;;;;13.07;2.13;;;;;;;10.38;100.00;99796.72;5110543;28;20194;-79
2022/10/11 02:28:30;;;;;;;9.87;2.70;;;;;;;10.42;100.00;99795.63;5114933;28;20195;-79
2022/10/11 02:31:03;;;;;;;11.10;2.83;;;;;;;10.44;100.00;99785.81;5114130;28;20183;-79
2022/10/11 02:33:38;;;;;;;9.17;2.17;;;;;;;10.24;100.00;99789.50;5108436;28;20223;-79
2022/10/11 02:36:16;;;;;;;11.00;2.40;;;;;;;10.07;100.00;99792.13;5092885;28;20191;-79
2022/10/11 02:38:49;;;;;;;5.90;2.07;;;;;;;10.14;100.00;99793.53;5113170;27;20198;-80
2022/10/11 02:41:25;;;;;;;11.77;2.30;;;;;;;10.07;100.00;99800.06;5077980;28;20187;-79
2022/10/11 02:44:00;;;;;;;14.93;2.70;;;;;;;10.18;100.00;99800.38;5112736;28;20346;-79
2022/10/11 02:46:29;;;;;;;9.50;2.40;;;;;;;10.17;100.00;99801.31;5112240;28;20194;-79
2022/10/11 02:49:00;;;;;;;11.60;2.30;;;;;;;10.15;100.00;99797.91;5114016;27;20232;-79
2022/10/11 02:51:31;;;;;;;8.77;1.90;;;;;;;10.06;100.00;99794.88;5109831;28;20224;-79
2022/10/11 02:53:59;;;;;;;12.37;2.23;;;;;;;9.54;100.00;99800.97;5113107;28;20187;-78
2022/10/11 02:56:28;;;;;;;10.90;2.57;;;;;;;9.20;100.00;99793.00;5114010;28;20229;-79
2022/10/11 02:58:56;;;;;;;9.90;2.37;;;;;;;9.05;100.00;99806.00;5108924;28;20248;-79
2022/10/11 03:01:25;;;;;;;8.57;2.43;;;;;;;9.02;100.00;99807.94;5113863;27;20230;-79
2022/10/11 03:03:53;;;;;;;8.77;2.70;;;;;;;9.02;100.00;99808.78;5109371;28;20219;-78
2022/10/11 03:06:23;;;;;;;14.30;3.30;;;;;;;8.83;100.00;99808.78;5116716;27;20248;-79
2022/10/11 03:08:53;;;;;;;9.57;2.57;;;;;;;8.85;100.00;99809.56;5103233;28;20194;-79
2022/10/11 03:11:21;;;;;;;12.40;2.83;;;;;;;8.69;100.00;99807.75;5109173;28;20226;-79
2022/10/11 03:13:50;;;;;;;15.13;3.03;;;;;;;8.58;100.00;99824.91;5112535;28;20272;-78
2022/10/11 03:16:18;;;;;;;14.40;2.87;;;;;;;8.55;100.00;99824.19;5108794;28;20248;-79
2022/10/11 03:18:47;;;;;;;14.43;3.43;;;;;;;8.68;100.00;99830.63;5109591;28;20191;-78
2022/10/11 03:21:15;;;;;;;12.20;2.90;;;;;;;8.73;100.00;99835.72;5070716;28;20238;-78
2022/10/11 03:23:45;;;;;;;13.73;3.00;;;;;;;8.93;100.00;99834.78;5063820;28;20196;-79
2022/10/11 03:26:14;;;;;;;9.67;2.77;;;;;;;8.93;100.00;99837.44;5068150;28;20196;-78
2022/10/11 03:28:42;;;;;;;7.73;2.27;;;;;;;8.92;100.00;99841.84;5066320;28;20196;-78
2022/10/11 03:31:11;;;;;;;5.80;2.43;;;;;;;8.89;100.00;99836.72;5068865;28;20740;-79
2022/10/11 03:33:39;;;;;;;12.30;2.87;;;;;;;8.79;100.00;99840.72;5064366;28;20208;-79
2022/10/11 03:36:08;;;;;;;9.33;2.40;;;;;;;8.77;100.00;99838.13;5056790;28;20250;-79
2022/10/11 03:38:37;;;;;;;12.40;2.77;;;;;;;8.77;100.00;99834.63;5061980;28;20200;-80
2022/10/11 03:41:09;;;;;;;10.83;2.60;;;;;;;8.70;100.00;99846.41;5068382;28;20249;-79
2022/10/11 03:43:37;;;;;;;7.63;2.33;;;;;;;8.54;100.00;99841.81;5063910;28;20196;-78
2022/10/11 03:46:05;;;;;;;8.60;2.50;;;;;;;8.58;100.00;99846.00;5093404;28;20251;-79
2022/10/11 03:48:35;;;;;;;7.97;2.33;;;;;;;8.54;100.00;99844.44;5128728;27;20187;-79
2022/10/11 03:51:03;;;;;;;9.83;2.63;;;;;;;8.50;100.00;99845.53;5126678;27;20186;-79
2022/10/11 03:53:31;;;;;;;9.77;2.70;;;;;;;8.48;100.00;99847.34;5124249;27;20190;-79
2022/10/11 03:56:00;;;;;;;8.47;2.83;;;;;;;8.40;100.00;99846.00;5120525;27;20195;-78
2022/10/11 03:58:36;;;;;;;8.50;2.20;;;;;;;8.22;100.00;99851.13;5120690;27;20190;-79
2022/10/11 04:01:05;;;;;;;10.10;2.53;;;;;;;8.32;100.00;99849.78;5108930;28;20661;-79
2022/10/11 04:03:33;;;;;;;9.03;2.23;;;;;;;8.26;100.00;99852.69;5113270;28;20199;-79
2022/10/11 04:06:02;;;;;;;8.17;2.50;;;;;;;8.26;100.00;99855.34;5108076;28;20219;-79
2022/10/11 04:08:31;;;;;;;17.80;3.20;;;;;;;8.25;100.00;99868.59;5108123;28;20199;-79
2022/10/11 04:11:00;;;;;;;13.53;3.00;;;;;;;8.27;100.00;99872.88;5105325;28;20701;-79
2022/10/11 04:13:29;;;;;;;8.90;2.70;;;;;;;8.26;100.00;99868.53;5130997;28;20196;-78
2022/10/11 04:15:59;;;;;;;13.73;2.93;;;;;;;8.07;100.00;99874.66;5119413;28;20198;-79
2022/10/11 04:18:28;;;;;;;10.90;2.47;;;;;;;8.08;100.00;99882.50;5075998;28;20218;-79
2022/10/11 04:20:57;;;;;;;12.47;3.03;;;;;;;7.99;100.00;99880.25;5110189;28;20220;-77
2022/10/11 04:23:25;;;;;;;10.80;2.40;;;;;;;7.97;100.00;99890.88;5109824;28;20191;-79
2022/10/11 04:25:53;;;;;;;10.47;2.70;;;;;;;7.91;100.00;99884.97;5107250;28;20207;-79
2022/10/11 04:28:22;;;;;;;14.63;2.50;;;;;;;7.91;100.00;99888.50;5111017;28;20638;-79
2022/10/11 04:30:51;;;;;;;12.57;2.80;;;;;;;7.93;100.00;99891.94;5110864;28;20191;-79
2022/10/11 04:33:21;;;;;;;10.37;2.50;;;;;;;7.94;100.00;99892.78;5106355;28;20260;-79
2022/10/11 04:35:49;;;;;;;9.40;2.37;;;;;;;7.86;100.00;99889.59;5045396;28;20194;-79
2022/10/11 04:38:18;;;;;;;8.53;2.27;;;;;;;7.83;100.00;99892.38;5045697;28;20231;-78
2022/10/11 04:40:46;;;;;;;12.23;2.73;;;;;;;7.82;100.00;99893.31;5039482;28;20205;-81
2022/10/11 04:43:16;;;;;;;11.17;2.67;;;;;;;7.78;100.00;99907.50;5043586;28;20223;-79
2022/10/11 04:45:44;;;;;;;10.63;2.70;;;;;;;7.85;100.00;99899.28;5041157;28;20221;-79
2022/10/11 04:48:14;;;;;;;9.37;2.67;;;;;;;7.88;100.00;99903.56;5048126;28;20278;-78
2022/10/11 04:50:47;;;;;;;10.17;2.63;;;;;;;7.88;100.00;99903.56;5030137;28;20205;-79
2022/10/11 04:53:15;;;;;;;7.93;2.30;;;;;;;7.72;100.00;99904.22;5040020;28;20231;-79
2022/10/11 04:55:44;;;;;;;8.00;2.50;;;;;;;7.68;100.00;99905.25;5070962;28;20193;-78
2022/10/11 04:58:12;;;;;;;12.43;2.60;;;;;;;7.63;100.00;99907.22;5067283;28;20205;-79
2022/10/11 05:00:42;;;;;;;8.93;2.53;;;;;;;7.55;100.00;99913.72;5063514;28;20211;-79
2022/10/11 05:03:10;;;;;;;12.50;3.37;;;;;;;7.48;100.00;99918.34;5067337;28;20220;-78
2022/10/11 05:05:39;;;;;;;12.17;2.90;;;;;;;7.41;100.00;99917.72;5070233;28;20791;-79
2022/10/11 05:08:08;;;;;;;13.77;2.97;;;;;;;7.42;100.00;99915.94;5079189;28;20195;-79
2022/10/11 05:10:37;;;;;;;9.57;3.03;;;;;;;7.34;100.00;99916.28;5112630;28;20276;-79
2022/10/11 05:13:05;;;;;;;11.27;3.40;;;;;;;7.40;100.00;99918.66;5115421;27;20240;-79
2022/10/11 05:15:35;;;;;;;11.70;2.77;;;;;;;7.41;100.00;99923.00;5109138;28;20248;-79
2022/10/11 05:18:05;;;;;;;8.80;3.03;;;;;;;7.45;100.00;99935.16;5109241;28;20271;-79
2022/10/11 05:20:34;;;;;;;8.00;3.03;;;;;;;7.29;100.00;99933.16;5113129;28;20199;-79
2022/10/11 05:23:05;;;;;;;14.17;2.73;;;;;;;7.28;100.00;99942.00;5115086;28;20214;-79
2022/10/11 05:25:37;;;;;;;11.80;3.27;;;;;;;7.29;100.00;99944.56;5115830;28;20223;-78
2022/10/11 05:28:06;;;;;;;10.27;2.83;;;;;;;7.31;100.00;99948.00;5116605;27;20226;-79
2022/10/11 05:30:36;;;;;;;8.43;2.70;;;;;;;7.34;100.00;99954.94;5119349;27;20198;-79
2022/10/11 05:33:05;;;;;;;10.93;2.70;;;;;;;7.24;100.00;99954.44;5137913;28;20213;-77
2022/10/11 05:35:34;;;;;;;12.47;3.40;;;;;;;7.14;100.00;99956.56;5106198;28;20209;-81
2022/10/11 05:38:02;;;;;;;20.93;11.53;;;;;;;7.26;100.00;99964.91;5108441;28;20188;-78
2022/10/11 05:40:32;;;;;;;15.23;4.33;;;;;;;7.35;100.00;99961.94;5055700;28;20209;-79
2022/10/11 05:43:02;;;;;;;13.73;4.27;;;;;;;7.31;100.00;99971.72;5047801;28;20208;-79
2022/10/11 05:45:31;;;;;;;9.13;4.60;;;;;;;7.36;100.00;99967.13;5050432;28;20259;-79
2022/10/11 05:48:00;;;;;;;12.40;4.23;;;;;;;7.45;100.00;99971.19;5048833;28;20671;-79
2022/10/11 05:50:28;;;;;;;9.47;3.93;;;;;;;7.51;100.00;99975.38;5052977;28;20284;-79
2022/10/11 05:52:57;;;;;;;13.27;4.10;;;;;;;7.53;100.00;99982.31;5000110;28;20185;-79
2022/10/11 05:55:25;;;;;;;8.40;2.93;;;;;;;7.67;100.00;99979.13;5045406;28;20200;-79
2022/10/11 05:57:57;;;;;;;10.23;3.50;;;;;;;7.70;100.00;99993.03;5060081;28;20240;-78
2022/10/11 06:00:27;;;;;;;13.37;3.80;;;;;;;7.64;100.00;99980.13;5112561;28;20223;-78
2022/10/11 06:02:56;;;;;;;11.20;3.50;;;;;;;7.49;100.00;99983.34;5110510;28;20191;-81
2022/10/11 06:05:27;;;;;;;9.93;3.20;;;;;;;7.47;100.00;99995.72;5112596;28;20236;-79
2022/10/11 06:07:57;;;;;;;13.47;3.43;;;;;;;7.57;100.00;99996.22;5108204;28;20287;-79
2022/10/11 06:10:25;;;;;;;11.23;3.87;;;;;;;7.50;100.00;99995.59;5110115;28;20223;-78
2022/10/11 06:12:54;;;;;;;11.03;3.80;;;;;;;7.55;100.00;99998.94;5109150;28;20203;-78
2022/10/11 06:15:23;;;;;;;10.13;3.37;;;;;;;7.54;100.00;99999.84;5112388;28;20187;-80
2022/10/11 06:17:53;;;;;;;12.17;4.03;;;;;;;7.47;100.00;100001.00;5106807;28;20187;-81
2022/10/11 06:20:22;;;;;;;11.80;3.90;;;;;;;7.47;100.00;100012.41;5111879;28;20198;-78
2022/10/11 06:22:51;;;;;;;10.30;5.07;;;;;;;7.43;100.00;100002.00;5107828;28;20199;-78
2022/10/11 06:25:20;;;;;;;11.83;5.60;;;;;;;7.09;100.00;100003.25;5109030;28;20684;-78
2022/10/11 06:27:49;;;;;;;13.60;5.33;;;;;;;6.96;100.00;100011.66;5112877;28;20195;-80
2022/10/11 06:30:18;;;;;;;12.00;4.73;;;;;;;7.08;100.00;100011.22;5112558;28;20289;-80
2022/10/11 06:32:46;;;;;;;12.60;4.27;;;;;;;7.28;100.00;100021.03;5040368;28;20189;-78
2022/10/11 06:35:19;;;;;;;10.23;3.70;;;;;;;7.53;100.00;100023.59;5051133;28;20676;-78
2022/10/11 06:37:48;;;;;;;13.80;3.50;;;;;;;7.35;100.00;100028.66;5046914;28;20200;-78
2022/10/11 06:40:19;;;;;;;12.33;4.13;;;;;;;7.35;100.00;100022.53;5046026;28;20185;-81
2022/10/11 06:42:48;;;;;;;8.23;3.30;;;;;;;7.31;100.00;100031.47;5050667;28;20266;-82
2022/10/11 06:45:16;;;;;;;10.63;3.20;;;;;;;7.42;100.00;100034.56;5044804;28;20291;-80
2022/10/11 06:47:45;;;;;;;9.90;3.23;;;;;;;7.60;100.00;100040.91;4998725;28;20236;-79
2022/10/11 06:50:14;;;;;;;9.30;3.10;;;;;;;7.68;100.00;100045.00;5060027;28;20187;-78
2022/10/11 06:52:46;;;;;;;9.70;3.23;;;;;;;7.79;100.00;100056.91;5113027;28;20187;-80
2022/10/11 06:55:14;;;;;;;11.63;3.40;;;;;;;7.77;100.00;100056.13;5108493;28;20237;-78
2022/10/11 06:57:45;;;;;;;10.10;3.83;;;;;;;7.86;100.00;100058.41;5115617;27;20194;-79
2022/10/11 07:00:14;;;;;;;10.90;3.70;;;;;;;7.92;100.00;100060.81;5108773;28;20247;-81
2022/10/11 07:02:43;;;;;;;12.17;3.67;;;;;;;7.91;100.00;100054.69;5048640;28;20287;-79
2022/10/11 07:05:11;;;;;;;12.40;3.40;;;;;;;7.99;100.00;100062.28;5044431;28;20235;-79
2022/10/11 07:07:40;;;;;;;12.40;3.53;;;;;;;8.06;100.00;100065.53;5040842;28;20497;-82
2022/10/11 07:10:11;;;;;;;14.67;3.47;;;;;;;8.17;100.00;100069.47;4986038;28;20431;-79
2022/10/11 07:12:43;;;;;;;10.30;3.70;;;;;;;8.26;100.00;100076.16;4982759;28;20195;-81
2022/10/11 07:15:12;;;;;;;12.73;3.90;;;;;;;8.43;100.00;100078.16;4989635;28;20262;-79
2022/10/11 07:17:41;;;;;;;15.43;6.50;;;;;;;8.39;100.00;100077.41;4987154;28;20210;-79
2022/10/11 07:20:13;;;;;;;10.53;4.37;;;;;;;8.54;100.00;100082.09;4986875;28;20207;-79
2022/10/11 07:22:43;;;;;;;10.33;3.23;;;;;;;8.72;100.00;100082.25;4983617;28;20199;-79
2022/10/11 07:25:13;;;;;;;9.80;2.97;;;;;;;8.62;100.00;100084.44;4987432;28;20199;-79
2022/10/11 07:27:41;;;;;;;10.50;3.23;;;;;;;8.69;100.00;100087.69;5005378;28;20215;-79
2022/10/11 07:30:10;;;;;;;8.77;2.97;;;;;;;8.93;100.00;100083.13;4997918;28;20256;-79
2022/10/11 07:32:39;;;;;;;11.33;3.17;;;;;;;9.02;100.00;100082.75;5046931;28;20205;-79
2022/10/11 07:35:08;;;;;;;11.00;3.00;;;;;;;9.18;100.00;100078.53;5112384;27;20255;-79
2022/10/11 07:37:37;;;;;;;12.30;2.97;;;;;;;9.28;100.00;100086.91;5090541;28;20233;-79
2022/10/11 07:40:09;;;;;;;9.53;3.10;;;;;;;9.14;100.00;100085.72;5113740;28;20195;-79
2022/10/11 07:42:42;;;;;;;11.17;2.50;;;;;;;9.40;100.00;100084.59;5108812;28;20210;-79
2022/10/11 07:45:12;;;;;;;14.20;3.37;;;;;;;9.60;100.00;100083.69;5047337;28;20196;-79
2022/10/11 07:47:45;;;;;;;13.97;2.87;;;;;;;9.66;100.00;100078.13;5044296;28;20320;-79
2022/10/11 07:50:15;;;;;;;11.33;2.93;;;;;;;9.87;100.00;100071.00;5044333;28;20269;-79
2022/10/11 07:52:44;;;;;;;13.83;3.00;;;;;;;9.94;100.00;100074.19;5045804;28;20224;-79
2022/10/11 07:55:14;;;;;;;7.57;2.63;;;;;;;9.99;100.00;100069.56;5048312;28;20266;-79
2022/10/11 07:57:44;;;;;;;11.60;2.60;;;;;;;9.97;100.00;100082.88;5051155;28;20200;-79
2022/10/11 08:00:16;;;;;;;12.60;2.67;;;;;;;10.07;100.00;100080.66;5046740;28;20664;-79
2022/10/11 08:02:45;;;;;;;9.90;2.53;;;;;;;10.19;100.00;100081.84;5050743;28;20189;-79
2022/10/11 08:05:14;;;;;;;14.23;2.80;;;;;;;10.31;100.00;100071.56;5048345;28;20208;-79
2022/10/11 08:07:42;;;;;;;9.50;2.60;;;;;;;10.36;100.00;100076.66;5003483;28;20221;-79
2022/10/11 08:10:16;;;;;;;7.13;2.60;;;;;;;10.58;100.00;100074.66;5048108;28;20229;-79
2022/10/11 08:12:48;;;;;;;12.60;2.67;;;;;;;10.70;100.00;100073.19;5047633;28;20264;-79
2022/10/11 08:15:17;;;;;;;11.13;3.13;;;;;;;10.76;100.00;100077.34;5047392;28;20243;-79
2022/10/11 08:17:46;;;;;;;9.53;2.33;;;;;;;10.77;100.00;100064.00;5045698;28;20714;-80
2022/10/11 08:20:14;;;;;;;8.73;2.30;;;;;;;10.81;100.00;100064.72;5044136;28;20190;-83
2022/10/11 08:22:43;;;;;;;7.77;2.30;;;;;;;10.98;100.00;100074.44;5050614;28;20198;-80
2022/10/11 08:25:13;;;;;;;9.57;2.53;;;;;;;11.26;100.00;100068.59;5114316;28;20683;-79
2022/10/11 08:27:42;;;;;;;13.27;2.60;;;;;;;11.34;100.00;100072.56;5111507;28;20222;-79
2022/10/11 08:30:14;;;;;;;7.13;2.03;;;;;;;11.39;100.00;100081.16;5112083;28;20263;-79
2022/10/11 08:32:43;;;;;;;9.97;2.43;;;;;;;11.63;100.00;100078.97;5116661;28;20700;-79
2022/10/11 08:35:11;;;;;;;8.97;2.40;;;;;;;11.51;100.00;100078.78;5116603;28;20210;-79
2022/10/11 08:37:45;;;;;;;10.00;2.90;;;;;;;11.70;100.00;100077.72;5114866;27;20218;-79
2022/10/11 08:40:16;;;;;;;11.83;2.80;;;;;;;11.82;100.00;100078.00;5115499;28;20190;-79
2022/10/11 08:42:49;;;;;;;14.13;2.60;;;;;;;12.01;100.00;100078.72;5118566;27;20203;-79
2022/10/11 08:45:30;;;;;;;10.97;2.53;;;;;;;11.79;100.00;100070.19;5114203;28;20203;-79
2022/10/11 08:48:08;;;;;;;9.63;2.43;;;;;;;12.00;100.00;100072.56;5113934;28;20226;-79
2022/10/11 08:50:38;;;;;;;10.13;2.53;;;;;;;12.19;100.00;100074.19;5110802;28;20187;-79
2022/10/11 08:53:19;;;;;;;8.80;2.20;;;;;;;12.29;100.00;100073.59;5118046;28;20194;-79
2022/10/11 08:55:52;;;;;;;11.10;2.50;;;;;;;12.13;100.00;100079.84;5135865;28;20198;-79
2022/10/11 08:58:24;;;;;;;9.90;2.67;;;;;;;12.46;100.00;100069.97;5140324;28;20191;-78
2022/10/11 09:00:57;;;;;;;12.70;2.87;;;;;;;12.64;100.00;100073.34;5127928;28;20191;-79
2022/10/11 09:03:37;;;;;;;11.37;2.40;;;;;;;12.54;100.00;100067.72;5117146;28;20191;-79
2022/10/11 09:06:15;;;;;;;8.47;2.13;;;;;;;12.75;100.00;100064.78;5115243;28;20240;-81
2022/10/11 09:08:59;;;;;;;13.43;2.60;;;;;;;12.77;100.00;100065.56;5113374;28;20238;-81
2022/10/11 09:11:39;;;;;;;11.00;2.63;;;;;;;13.18;100.00;100061.28;5109998;28;20231;-81
2022/10/11 09:14:37;;;;;;;11.47;2.47;;;;;;;13.21;100.00;100062.06;5112115;28;20232;-81
2022/10/11 09:17:17;;;;;;;14.57;2.67;;;;;;;12.80;100.00;100054.72;5107976;28;20252;-81
2022/10/11 09:20:08;;;;;;;10.17;2.10;;;;;;;13.05;100.00;100059.47;5110575;28;20190;-81
2022/10/11 09:22:48;;;;;;;13.07;2.70;;;;;;;13.16;100.00;100054.34;5113227;28;20227;-78
2022/10/11 09:25:25;;;;;;;11.10;2.37;;;;;;;13.66;100.00;100045.09;5115097;28;20381;-81
2022/10/11 09:28:15;;;;;;;16.30;2.80;;;;;;;13.90;100.00;100045.38;5116663;27;20219;-81
2022/10/11 09:30:48;;;;;;;11.20;2.47;;;;;;;13.98;100.00;100040.38;5113807;28;20294;-81
2022/10/11 09:33:26;;;;;;;8.27;2.10;;;;;;;14.18;100.00;100037.28;5107462;28;20199;-81
2022/10/11 09:35:57;;;;;;;11.10;2.20;;;;;;;14.17;100.00;100035.59;5063145;28;20183;-81
2022/10/11 09:38:38;;;;;;;13.83;2.63;;;;;;;14.10;100.00;100034.28;5109914;28;20191;-81
2022/10/11 09:41:14;;;;;;;9.27;2.50;;;;;;;14.30;100.00;100025.84;5111056;28;20226;-81
2022/10/11 09:43:48;;;;;;;8.87;2.10;;;;;;;14.21;100.00;100033.59;5030483;28;20198;-81
2022/10/11 09:46:22;;;;;;;8.17;2.33;;;;;;;14.29;100.00;100036.63;5019828;28;20201;-81
2022/10/11 09:48:56;;;;;;;11.90;2.60;;;;;;;14.07;100.00;100025.63;5028615;28;20214;-81
2022/10/11 09:51:27;;;;;;;8.00;2.10;;;;;;;14.40;100.00;100034.09;5027773;28;20197;-81
2022/10/11 09:53:58;;;;;;;10.90;2.77;;;;;;;14.17;100.00;100034.72;4948498;29;20239;-81
2022/10/11 09:56:29;;;;;;;8.37;2.10;;;;;;;13.94;100.00;100036.22;4954897;29;20245;-81
2022/10/11 09:59:25;;;;;;;9.10;2.33;;;;;;;14.42;100.00;100044.66;4952198;29;20255;-81
2022/10/11 10:02:23;;;;;;;8.43;2.03;;;;;;;14.20;100.00;100027.41;4977873;28;20642;-81
2022/10/11 10:05:14;;;;;;;8.97;2.33;;;;;;;14.59;100.00;100039.97;5015768;28;20241;-81
2022/10/11 10:08:03;;;;;;;13.77;3.17;;;;;;;14.32;100.00;100045.25;5029684;28;20218;-81
2022/10/11 10:10:37;;;;;;;13.53;2.80;;;;;;;14.44;100.00;100051.59;5023926;28;20274;-81
2022/10/11 10:13:16;;;;;;;8.37;1.77;;;;;;;14.99;100.00;100045.28;5027614;28;20202;-81
2022/10/11 10:15:47;;;;;;;11.03;2.20;;;;;;;15.54;100.00;100040.59;5027021;28;20190;-82
2022/10/11 10:18:23;;;;;;;13.07;2.97;;;;;;;15.41;100.00;100037.94;5070778;28;20190;-81
2022/10/11 10:20:55;;;;;;;11.27;2.20;;;;;;;16.00;100.00;100043.53;5127880;28;20195;-81
2022/10/11 10:23:27;;;;;;;10.37;2.40;;;;;;;16.10;100.00;100041.06;5126603;28;20248;-81
2022/10/11 10:26:12;;;;;;;8.50;2.30;;;;;;;16.30;100.00;100035.09;5124738;28;20195;-81
2022/10/11 10:28:58;;;;;;;10.37;2.37;;;;;;;16.65;100.00;100039.66;5117616;28;20217;-79
2022/10/11 10:31:34;;;;;;;9.37;2.17;;;;;;;16.88;98.33;100036.97;5111936;28;20191;-79
2022/10/11 10:34:26;;;;;;;10.63;2.33;;;;;;;16.72;100.00;100046.31;5114938;28;20231;-78
2022/10/11 10:37:00;;;;;;;7.67;2.00;;;;;;;17.26;97.41;100045.72;5112429;28;20194;-79
2022/10/11 10:39:40;;;;;;;9.33;2.27;;;;;;;17.46;94.92;100039.66;5114241;28;20224;-79
2022/10/11 10:42:15;;;;;;;6.37;1.80;;;;;;;16.85;91.53;100041.72;5111590;28;20193;-78
2022/10/11 10:44:46;;;;;;;7.70;1.90;;;;;;;17.21;89.53;100039.88;5110502;28;20194;-78
2022/10/11 10:47:23;;;;;;;7.60;1.70;;;;;;;17.41;89.89;100037.34;5102358;28;20223;-78
2022/10/11 10:49:57;;;;;;;7.83;1.97;;;;;;;17.20;93.39;100041.72;5111833;28;20259;-79
2022/10/11 10:53:10;;;;;;;7.33;2.20;;;;;;;17.10;93.23;100036.22;5112984;28;20195;-78
2022/10/11 10:55:45;;;;;;;6.87;1.77;;;;;;;17.16;88.57;100029.50;5080671;28;20201;-79
2022/10/11 10:58:34;;;;;;;6.70;1.70;;;;;;;17.03;88.46;100036.81;5108583;28;20199;-79
2022/10/11 11:01:11;;;;;;;4.30;1.70;;;;;;;17.95;82.18;100030.44;5110571;28;20202;-81
2022/10/11 11:03:46;;;;;;;8.40;1.90;;;;;;;18.11;75.70;100020.19;5113893;27;20272;-79
2022/10/11 11:06:23;;;;;;;7.07;1.80;;;;;;;18.43;73.69;100028.28;5112797;27;20672;-81
2022/10/11 11:09:05;;;;;;;7.87;2.10;;;;;;;18.58;71.76;100020.78;5108658;28;20218;-81
2022/10/11 11:11:51;;;;;;;9.00;2.10;;;;;;;18.81;74.90;100011.66;5110162;28;20236;-80
2022/10/11 11:14:31;;;;;;;9.17;2.67;;;;;;;18.09;77.81;100010.56;5107976;28;20685;-81
2022/10/11 11:17:11;;;;;;;7.77;1.50;;;;;;;18.29;81.44;100013.31;5111611;28;20195;-78
2022/10/11 11:19:54;;;;;;;12.47;2.50;;;;;;;17.86;84.96;100005.25;5114092;28;20190;-80
2022/10/11 11:22:31;;;;;;;10.63;2.50;;;;;;;17.31;87.68;100006.91;5110172;28;20602;-81
2022/10/11 11:25:12;;;;;;;6.70;1.90;;;;;;;17.55;87.71;100006.78;5114649;27;20199;-79
2022/10/11 11:27:49;;;;;;;11.00;2.07;;;;;;;17.67;84.17;100003.16;5068325;28;20242;-80
2022/10/11 11:30:22;;;;;;;9.87;2.23;;;;;;;18.09;82.24;99999.84;5069600;28;20232;-80
2022/10/11 11:33:02;;;;;;;10.27;2.13;;;;;;;17.92;83.32;99998.53;5066836;28;20666;-81
2022/10/11 11:35:39;;;;;;;9.87;2.00;;;;;;;18.76;80.41;100000.47;5029476;28;20201;-80
2022/10/11 11:38:16;;;;;;;8.43;2.20;;;;;;;18.96;75.71;99996.09;5028152;28;20220;-80
2022/10/11 11:40:49;;;;;;;7.30;1.90;;;;;;;19.36;71.55;99987.28;4964781;28;20203;-79
2022/10/11 11:43:23;;;;;;;7.20;1.90;;;;;;;19.29;70.91;99995.03;4963643;28;20192;-81
2022/10/11 11:45:57;;;;;;;7.43;1.80;;;;;;;19.28;71.81;99981.72;4986295;28;20202;-81
2022/10/11 11:48:28;;;;;;;8.53;2.50;;;;;;;20.16;69.68;99989.13;5005360;28;20237;-81